createdAt,value
2023-04-04T00:00:30.839Z,14.68
2023-04-04T00:02:57.836Z,15.10
2023-04-04T00:05:24.819Z,16.27
2023-04-04T00:07:51.742Z,15.15
2023-04-04T00:10:18.644Z,17.38
2023-04-04T00:12:46.704Z,17.20
2023-04-04T00:15:13.676Z,20.30
2023-04-04T00:17:40.730Z,19.75
2023-04-04T00:20:08.014Z,18.67
2023-04-04T00:22:34.887Z,19.85
2023-04-04T00:25:01.719Z,15.30
2023-04-04T00:27:28.680Z,18.42
2023-04-04T00:29:55.939Z,17.40
2023-04-04T00:32:22.959Z,14.55
2023-04-04T00:34:53.948Z,17.17
2023-04-04T00:37:21.677Z,16.67
2023-04-04T00:39:49.539Z,15.55
2023-04-04T00:42:16.450Z,15.05
2023-04-04T00:44:43.405Z,15.52
2023-04-04T00:49:54.246Z,19.00
2023-04-04T00:52:21.265Z,16.80
2023-04-04T00:54:48.281Z,18.25
2023-04-04T00:57:15.337Z,17.60
2023-04-04T00:59:43.278Z,18.20
2023-04-04T01:02:10.186Z,17.02
2023-04-04T01:04:37.428Z,20.38
2023-04-04T01:07:04.686Z,15.60
2023-04-04T01:09:31.971Z,19.50
2023-04-04T01:11:59.354Z,17.20
2023-04-04T01:14:28.279Z,17.00
2023-04-04T01:16:55.819Z,17.25
2023-04-04T01:19:35.092Z,18.20
2023-04-04T01:22:09.510Z,18.50
2023-04-04T01:24:38.308Z,16.92
2023-04-04T01:27:06.551Z,16.35
2023-04-04T01:29:38.988Z,15.35
2023-04-04T01:32:19.217Z,17.85
2023-04-04T01:34:56.468Z,15.82
2023-04-04T01:38:04.814Z,16.60
2023-04-04T01:43:07.310Z,15.93
2023-04-04T01:45:35.444Z,16.00
2023-04-04T01:48:08.245Z,17.63
2023-04-04T01:50:35.418Z,16.27
2023-04-04T01:53:02.685Z,18.58
2023-04-04T01:55:29.967Z,15.63
2023-04-04T01:57:57.185Z,17.77
2023-04-04T02:00:24.188Z,16.13
2023-04-04T02:02:51.645Z,16.60
2023-04-04T02:05:18.617Z,14.52
2023-04-04T02:07:52.166Z,17.27
2023-04-04T02:10:31.208Z,16.50
2023-04-04T02:12:58.251Z,17.73
2023-04-04T02:15:25.340Z,15.90
2023-04-04T02:17:52.670Z,15.80
2023-04-04T02:20:19.735Z,12.95
2023-04-04T02:22:56.301Z,15.63
2023-04-04T02:25:24.763Z,19.35
2023-04-04T02:27:51.726Z,16.83
2023-04-04T02:30:19.571Z,17.73
2023-04-04T02:32:47.732Z,16.67
2023-04-04T02:35:18.063Z,18.60
2023-04-04T02:37:48.372Z,17.00
2023-04-04T02:40:39.990Z,18.60
2023-04-04T02:43:07.554Z,16.40
2023-04-04T02:45:35.845Z,15.43
2023-04-04T02:48:20.514Z,18.40
2023-04-04T02:50:50.192Z,17.50
2023-04-04T02:53:17.576Z,18.48
2023-04-04T02:55:47.304Z,18.10
2023-04-04T02:58:14.664Z,16.92
2023-04-04T03:00:41.783Z,19.77
2023-04-04T03:03:09.374Z,16.40
2023-04-04T03:05:41.467Z,14.68
2023-04-04T03:08:08.345Z,16.05
2023-04-04T03:10:35.178Z,15.18
2023-04-04T03:13:03.763Z,17.73
2023-04-04T03:15:33.016Z,17.77
2023-04-04T03:18:00.243Z,15.18
2023-04-04T03:20:29.629Z,11.63
2023-04-04T03:22:57.840Z,17.90
2023-04-04T03:25:25.161Z,16.42
2023-04-04T03:27:52.557Z,16.38
2023-04-04T03:30:27.232Z,17.92
2023-04-04T03:32:55.470Z,15.40
2023-04-04T03:35:22.421Z,20.70
2023-04-04T03:37:49.332Z,16.67
2023-04-04T03:40:16.650Z,17.75
2023-04-04T03:42:43.578Z,21.23
2023-04-04T03:45:12.566Z,18.15
2023-04-04T03:47:41.737Z,22.42
2023-04-04T03:50:09.064Z,31.75
2023-04-04T03:52:42.260Z,30.60
2023-04-04T03:55:10.041Z,23.70
2023-04-04T03:57:36.964Z,25.38
2023-04-04T04:00:08.010Z,20.67
2023-04-04T04:02:43.846Z,14.77
2023-04-04T04:05:11.102Z,19.88
2023-04-04T04:07:38.032Z,15.15
2023-04-04T04:10:05.645Z,13.07
2023-04-04T04:12:32.966Z,18.02
2023-04-04T04:14:59.824Z,14.27
2023-04-04T04:17:27.827Z,15.32
2023-04-04T04:19:55.054Z,15.30
2023-04-04T04:22:23.233Z,12.85
2023-04-04T04:24:50.090Z,12.32
2023-04-04T04:27:16.974Z,11.82
2023-04-04T04:29:43.833Z,12.73
2023-04-04T04:32:10.914Z,12.55
2023-04-04T04:34:45.094Z,11.60
2023-04-04T04:37:12.954Z,14.18
2023-04-04T04:39:47.250Z,11.20
2023-04-04T04:42:23.706Z,10.05
2023-04-04T04:47:23.897Z,9.40
2023-04-04T04:49:52.241Z,11.25
2023-04-04T04:52:26.446Z,12.27
2023-04-04T04:54:55.978Z,10.52
2023-04-04T04:57:23.712Z,11.45
2023-04-04T04:59:51.409Z,14.27
2023-04-04T05:02:19.074Z,14.45
2023-04-04T05:04:47.228Z,11.93
2023-04-04T05:07:16.430Z,12.57
2023-04-04T05:09:46.165Z,11.65
2023-04-04T05:12:14.123Z,10.90
2023-04-04T05:14:45.852Z,10.82
2023-04-04T05:17:13.522Z,17.35
2023-04-04T05:19:41.331Z,12.38
2023-04-04T05:22:09.334Z,11.00
2023-04-04T05:24:43.196Z,11.77
2023-04-04T05:27:13.964Z,14.00
2023-04-04T05:29:47.705Z,9.30
2023-04-04T05:32:15.991Z,11.15
2023-04-04T05:34:49.673Z,9.75
2023-04-04T05:37:19.304Z,7.30
2023-04-04T05:39:49.109Z,6.55
2023-04-04T05:42:17.773Z,7.25
2023-04-04T05:44:49.951Z,6.10
2023-04-04T05:47:16.805Z,8.27
2023-04-04T05:49:46.626Z,9.25
2023-04-04T05:52:13.558Z,7.43
2023-04-04T05:54:41.275Z,7.50
2023-04-04T05:57:14.501Z,4.47
2023-04-04T05:59:51.909Z,10.10
2023-04-04T06:02:19.715Z,6.45
2023-04-04T06:04:51.345Z,8.68
2023-04-04T06:07:27.338Z,14.82
2023-04-04T06:09:54.187Z,9.13
2023-04-04T06:12:21.181Z,5.95
2023-04-04T06:14:48.640Z,7.85
2023-04-04T06:17:19.739Z,6.45
2023-04-04T06:19:46.605Z,7.15
2023-04-04T06:22:13.442Z,7.65
2023-04-04T06:24:46.605Z,6.35
2023-04-04T06:27:13.674Z,7.00
2023-04-04T06:29:41.509Z,5.55
2023-04-04T06:32:09.603Z,6.22
2023-04-04T06:34:39.980Z,5.20
2023-04-04T06:37:07.802Z,6.25
2023-04-04T06:39:45.851Z,4.30
2023-04-04T06:42:21.430Z,7.90
2023-04-04T06:44:51.999Z,9.55
2023-04-04T06:47:19.545Z,7.18
2023-04-04T06:49:46.349Z,5.40
2023-04-04T06:52:13.230Z,8.20
2023-04-04T06:54:41.163Z,7.32
2023-04-04T06:57:08.430Z,8.07
2023-04-04T06:59:35.322Z,10.75
2023-04-04T07:02:02.275Z,10.98
2023-04-04T07:04:30.151Z,8.63
2023-04-04T07:06:57.648Z,5.20
2023-04-04T07:09:29.238Z,7.10
2023-04-04T07:14:25.766Z,7.95
2023-04-04T07:16:53.397Z,9.60
2023-04-04T07:19:20.507Z,9.35
2023-04-04T07:21:47.292Z,16.27
2023-04-04T07:24:14.157Z,8.10
2023-04-04T07:26:41.107Z,8.80
2023-04-04T07:29:08.205Z,40.42
2023-04-04T07:31:35.188Z,54.15
2023-04-04T07:34:02.281Z,70.97
2023-04-04T07:36:30.025Z,28.17
2023-04-04T07:38:57.064Z,9.82
2023-04-04T07:41:23.923Z,11.77
2023-04-04T07:43:51.639Z,8.35
2023-04-04T07:46:18.556Z,9.25
2023-04-04T07:48:45.403Z,7.40
2023-04-04T07:51:12.676Z,8.48
2023-04-04T07:53:39.744Z,6.93
2023-04-04T07:56:06.843Z,7.43
2023-04-04T07:58:34.902Z,7.93
2023-04-04T08:01:02.880Z,6.63
2023-04-04T08:03:30.171Z,8.18
2023-04-04T08:05:57.182Z,9.27
2023-04-04T08:08:24.133Z,7.15
2023-04-04T08:10:50.961Z,6.45
2023-04-04T08:13:17.923Z,10.10
2023-04-04T08:15:44.860Z,10.90
2023-04-04T08:18:11.698Z,8.10
2023-04-04T08:20:38.855Z,7.80
2023-04-04T08:23:05.905Z,7.60
2023-04-04T08:25:32.829Z,6.78
2023-04-04T08:27:59.802Z,3.92
2023-04-04T08:30:26.689Z,5.13
2023-04-04T08:32:53.506Z,11.25
2023-04-04T08:35:20.768Z,5.43
2023-04-04T08:37:47.800Z,9.23
2023-04-04T08:40:14.935Z,8.20
2023-04-04T08:42:44.409Z,8.88
2023-04-04T08:45:12.522Z,10.75
2023-04-04T08:47:41.724Z,7.80
2023-04-04T08:50:08.904Z,6.07
2023-04-04T08:52:37.044Z,5.82
2023-04-04T08:55:06.074Z,4.60
2023-04-04T08:57:33.510Z,5.30
2023-04-04T09:00:00.788Z,4.78
2023-04-04T09:02:42.732Z,4.82
2023-04-04T09:05:11.026Z,4.72
2023-04-04T09:07:39.427Z,4.75
2023-04-04T09:10:11.029Z,5.25
2023-04-04T09:12:40.238Z,5.38
2023-04-04T09:15:07.805Z,6.18
2023-04-04T09:17:34.649Z,5.35
2023-04-04T09:20:05.195Z,7.68
2023-04-04T09:22:32.758Z,5.65
2023-04-04T09:24:59.706Z,5.22
2023-04-04T09:27:27.202Z,6.38
2023-04-04T09:29:54.025Z,5.28
2023-04-04T09:32:23.155Z,5.75
2023-04-04T09:34:50.329Z,7.63
2023-04-04T09:37:17.864Z,6.13
2023-04-04T09:39:45.733Z,7.45
2023-04-04T09:42:12.752Z,7.15
2023-04-04T09:44:39.640Z,4.60
2023-04-04T09:50:00.505Z,6.13
2023-04-04T09:52:27.617Z,7.90
2023-04-04T09:54:59.539Z,6.30
2023-04-04T09:57:31.689Z,6.70
2023-04-04T10:00:03.755Z,4.72
2023-04-04T10:02:39.407Z,9.98
2023-04-04T10:05:10.495Z,10.48
2023-04-04T10:07:40.069Z,15.77
2023-04-04T10:10:09.165Z,6.95
2023-04-04T10:12:39.125Z,10.52
2023-04-04T10:15:06.573Z,9.10
2023-04-04T10:17:41.911Z,6.85
2023-04-04T10:20:09.974Z,8.93
2023-04-04T10:22:38.864Z,6.47
2023-04-04T10:25:07.317Z,6.25
2023-04-04T10:27:34.931Z,6.18
2023-04-04T10:30:02.462Z,5.18
2023-04-04T10:32:57.816Z,7.78
2023-04-04T10:35:25.269Z,5.72
2023-04-04T10:38:00.169Z,7.38
2023-04-04T10:40:32.435Z,9.63
2023-04-04T10:43:05.356Z,7.70
2023-04-04T10:45:33.444Z,5.18
2023-04-04T10:48:03.173Z,6.25
2023-04-04T10:50:33.315Z,3.97
2023-04-04T10:53:02.298Z,4.70
2023-04-04T10:55:30.083Z,6.78
2023-04-04T10:57:57.226Z,5.28
2023-04-04T11:00:24.601Z,5.47
2023-04-04T11:02:59.432Z,5.55
2023-04-04T11:05:34.493Z,11.52
2023-04-04T11:08:09.402Z,8.27
2023-04-04T11:10:39.297Z,7.70
2023-04-04T11:13:13.999Z,6.57
2023-04-04T11:15:58.100Z,5.47
2023-04-04T11:18:45.953Z,6.53
2023-04-04T11:21:24.051Z,5.13
2023-04-04T11:24:00.598Z,5.95
2023-04-04T11:26:33.678Z,6.10
2023-04-04T11:29:04.829Z,4.00
2023-04-04T11:31:40.038Z,4.75
2023-04-04T11:34:11.326Z,3.53
2023-04-04T11:36:38.930Z,5.00
2023-04-04T11:39:16.976Z,4.35
2023-04-04T11:41:57.378Z,4.47
2023-04-04T11:44:31.035Z,4.10
2023-04-04T11:47:04.589Z,3.42
2023-04-04T11:49:35.579Z,3.30
2023-04-04T11:52:16.722Z,4.53
2023-04-04T11:54:46.935Z,5.55
2023-04-04T11:57:21.273Z,3.70
2023-04-04T11:59:50.655Z,3.97
2023-04-04T12:02:24.920Z,2.90
2023-04-04T12:04:52.523Z,3.45
2023-04-04T12:07:20.140Z,5.28
2023-04-04T12:09:48.342Z,6.57
2023-04-04T12:12:18.699Z,8.00
2023-04-04T12:14:45.963Z,5.15
2023-04-04T12:17:12.863Z,13.68
2023-04-04T12:19:40.805Z,3.58
2023-04-04T12:22:08.607Z,2.22
2023-04-04T12:24:36.896Z,4.13
2023-04-04T12:27:04.230Z,5.63
2023-04-04T12:29:39.073Z,2.72
2023-04-04T12:32:07.780Z,4.15
2023-04-04T12:34:42.665Z,12.75
2023-04-04T12:37:14.459Z,5.70
2023-04-04T12:39:49.423Z,4.55
2023-04-04T12:42:24.474Z,2.95
2023-04-04T12:44:53.968Z,3.55
2023-04-04T12:47:24.099Z,2.88
2023-04-04T12:49:54.909Z,5.25
2023-04-04T12:52:32.276Z,4.68
2023-04-04T12:55:08.088Z,2.92
2023-04-04T12:57:36.821Z,3.55
2023-04-04T13:00:06.614Z,2.78
2023-04-04T13:02:36.019Z,5.53
2023-04-04T13:05:04.038Z,7.78
2023-04-04T13:07:33.120Z,5.47
2023-04-04T13:10:03.965Z,4.82
2023-04-04T13:13:02.584Z,3.45
2023-04-04T13:15:49.696Z,5.90
2023-04-04T13:18:21.175Z,3.90
2023-04-04T13:20:48.755Z,2.75
2023-04-04T13:23:16.055Z,2.72
2023-04-04T13:25:43.240Z,1.95
2023-04-04T13:28:13.349Z,2.60
2023-04-04T13:30:49.062Z,2.67
2023-04-04T13:33:17.467Z,2.50
2023-04-04T13:35:45.604Z,4.10
2023-04-04T13:38:13.007Z,2.40
2023-04-04T13:40:39.921Z,5.18
2023-04-04T13:43:07.080Z,4.10
2023-04-04T13:45:34.846Z,3.25
2023-04-04T13:48:02.857Z,2.47
2023-04-04T13:50:32.879Z,3.60
2023-04-04T13:52:59.787Z,4.93
2023-04-04T13:55:27.504Z,6.43
2023-04-04T13:57:54.489Z,4.63
2023-04-04T14:00:21.642Z,3.97
2023-04-04T14:02:53.010Z,22.60
2023-04-04T14:05:22.443Z,11.00
2023-04-04T14:07:49.622Z,4.78
2023-04-04T14:10:17.210Z,4.32
2023-04-04T14:12:44.191Z,15.65
2023-04-04T14:15:12.294Z,6.90
2023-04-04T14:17:39.278Z,3.15
2023-04-04T14:20:08.049Z,2.83
2023-04-04T14:22:35.001Z,5.47
2023-04-04T14:25:02.133Z,3.85
2023-04-04T14:27:29.000Z,8.90
2023-04-04T14:29:55.950Z,6.80
2023-04-04T14:32:22.807Z,4.60
2023-04-04T14:34:49.714Z,2.50
2023-04-04T14:37:17.218Z,2.65
2023-04-04T14:39:44.027Z,8.82
2023-04-04T14:42:10.894Z,9.18
2023-04-04T14:44:37.766Z,6.05
2023-04-04T14:47:04.689Z,3.33
2023-04-04T14:49:31.629Z,2.40
2023-04-04T14:51:58.510Z,4.78
2023-04-04T14:54:25.436Z,5.43
2023-04-04T14:56:52.806Z,4.53
2023-04-04T14:59:19.734Z,3.47
2023-04-04T15:01:46.812Z,5.75
2023-04-04T15:04:13.799Z,4.63
2023-04-04T15:06:40.732Z,7.25
2023-04-04T15:09:08.786Z,11.73
2023-04-04T15:11:36.142Z,12.23
2023-04-04T15:14:03.268Z,12.60
2023-04-04T15:16:33.224Z,46.05
2023-04-04T15:19:00.935Z,29.30
2023-04-04T15:21:28.945Z,6.47
2023-04-04T15:23:55.946Z,13.13
2023-04-04T15:26:23.001Z,11.07
2023-04-04T15:28:49.870Z,9.10
2023-04-04T15:31:17.279Z,10.70
2023-04-04T15:33:44.232Z,5.38
2023-04-04T15:36:11.190Z,8.20
2023-04-04T15:38:38.303Z,7.28
2023-04-04T15:41:08.185Z,2.63
2023-04-04T15:43:36.653Z,3.10
2023-04-04T15:46:03.626Z,4.97
2023-04-04T15:48:30.557Z,4.65
2023-04-04T15:51:03.326Z,2.75
2023-04-04T15:53:31.310Z,2.72
2023-04-04T15:56:02.072Z,2.85
2023-04-04T15:58:28.966Z,1.73
2023-04-04T16:00:56.180Z,2.75
2023-04-04T16:03:24.749Z,1.27
2023-04-04T16:05:51.775Z,1.60
2023-04-04T16:08:18.708Z,4.68
2023-04-04T16:10:45.579Z,0.85
2023-04-04T16:13:14.072Z,1.23
2023-04-04T16:15:40.969Z,2.55
2023-04-04T16:18:08.793Z,1.48
2023-04-04T16:20:36.229Z,1.73
2023-04-04T16:23:03.072Z,1.08
2023-04-04T16:25:29.977Z,1.50
2023-04-04T16:27:56.927Z,2.38
2023-04-04T16:30:23.890Z,3.25
2023-04-04T16:32:51.127Z,9.15
2023-04-04T16:35:18.170Z,2.22
2023-04-04T16:37:45.034Z,4.10
2023-04-04T16:40:14.009Z,2.97
2023-04-04T16:42:42.213Z,7.13
2023-04-04T16:45:09.654Z,5.25
2023-04-04T16:47:37.057Z,4.00
2023-04-04T16:50:05.268Z,1.17
2023-04-04T16:52:32.213Z,1.38
2023-04-04T16:54:59.151Z,2.85
2023-04-04T16:57:27.358Z,0.70
2023-04-04T16:59:54.323Z,2.45
2023-04-04T17:02:21.228Z,0.60
2023-04-04T17:04:48.189Z,1.33
2023-04-04T17:07:15.101Z,1.20
2023-04-04T17:09:42.020Z,0.85
2023-04-04T17:12:09.310Z,3.38
2023-04-04T17:14:37.021Z,1.15
2023-04-04T17:17:05.568Z,1.25
2023-04-04T17:19:35.001Z,2.55
2023-04-04T17:22:02.396Z,3.63
2023-04-04T17:24:29.280Z,3.58
2023-04-04T17:26:58.427Z,0.22
2023-04-04T17:29:26.902Z,2.03
2023-04-04T17:31:55.744Z,0.65
2023-04-04T17:34:23.233Z,0.80
2023-04-04T17:36:51.312Z,1.77
2023-04-04T17:39:18.319Z,1.60
2023-04-04T17:41:49.335Z,1.05
2023-04-04T17:44:17.551Z,2.50
2023-04-04T17:46:45.397Z,2.35
2023-04-04T17:49:13.289Z,1.70
2023-04-04T17:51:40.204Z,3.10
2023-04-04T17:54:07.227Z,3.38
2023-04-04T17:56:34.042Z,1.10
2023-04-04T17:59:00.996Z,1.50
2023-04-04T18:01:28.147Z,1.25
2023-04-04T18:03:55.940Z,0.55
2023-04-04T18:06:23.982Z,1.67
2023-04-04T18:08:51.526Z,1.70
2023-04-04T18:11:18.440Z,0.70
2023-04-04T18:13:45.379Z,0.88
2023-04-04T18:16:12.567Z,1.73
2023-04-04T18:18:40.676Z,8.43
2023-04-04T18:21:08.488Z,8.60
2023-04-04T18:23:35.775Z,5.35
2023-04-04T18:26:02.804Z,2.17
2023-04-04T18:28:29.692Z,1.95
2023-04-04T18:30:56.775Z,5.30
2023-04-04T18:33:25.058Z,2.42
2023-04-04T18:35:51.956Z,1.05
2023-04-04T18:38:19.151Z,2.58
2023-04-04T18:40:46.696Z,7.18
2023-04-04T18:43:13.984Z,2.15
2023-04-04T18:45:41.591Z,3.13
2023-04-04T18:48:08.810Z,3.88
2023-04-04T18:50:36.031Z,1.98
2023-04-04T18:53:04.010Z,1.75
2023-04-04T18:55:31.341Z,1.67
2023-04-04T18:57:58.170Z,3.10
2023-04-04T19:00:25.655Z,1.10
2023-04-04T19:02:53.136Z,0.32
2023-04-04T19:05:24.368Z,3.38
2023-04-04T19:07:54.713Z,1.90
2023-04-04T19:10:22.187Z,0.77
2023-04-04T19:12:49.096Z,0.70
2023-04-04T19:15:15.941Z,1.35
2023-04-04T19:17:43.312Z,1.23
2023-04-04T19:20:11.395Z,0.65
2023-04-04T19:22:38.386Z,0.85
2023-04-04T19:25:05.603Z,1.15
2023-04-04T19:27:32.469Z,1.70
2023-04-04T19:29:59.413Z,1.08
2023-04-04T19:32:28.185Z,1.35
2023-04-04T19:34:56.393Z,0.70
2023-04-04T19:37:24.559Z,0.45
2023-04-04T19:39:51.420Z,1.27
2023-04-04T19:42:26.297Z,0.75
2023-04-04T19:44:53.269Z,1.27
2023-04-04T19:47:20.579Z,2.75
2023-04-04T19:49:49.249Z,1.63
2023-04-04T19:52:22.993Z,1.00
2023-04-04T19:54:49.908Z,0.73
2023-04-04T19:57:20.778Z,0.80
2023-04-04T19:59:47.913Z,1.40
2023-04-04T20:02:51.217Z,1.33
2023-04-04T20:05:32.391Z,1.80
2023-04-04T20:08:00.506Z,2.05
2023-04-04T20:10:38.777Z,1.48
2023-04-04T20:13:06.752Z,0.75
2023-04-04T20:16:04.154Z,0.75
2023-04-04T20:18:33.117Z,0.50
2023-04-04T20:20:59.927Z,0.43
2023-04-04T20:23:27.819Z,0.90
2023-04-04T20:25:55.270Z,1.25
2023-04-04T20:28:27.430Z,0.90
2023-04-04T20:33:32.378Z,0.40
2023-04-04T20:36:29.110Z,0.65
2023-04-04T20:38:57.111Z,0.90
2023-04-04T20:41:25.047Z,0.28
2023-04-04T20:43:57.400Z,0.50
2023-04-04T20:46:26.566Z,1.35
2023-04-04T20:48:56.727Z,2.47
2023-04-04T20:51:27.553Z,0.55
2023-04-04T20:53:56.516Z,0.63
2023-04-04T20:56:35.871Z,0.40
2023-04-04T20:59:04.152Z,1.17
2023-04-04T21:01:30.990Z,3.45
2023-04-04T21:03:57.990Z,1.40
2023-04-04T21:06:29.867Z,1.10
2023-04-04T21:08:56.755Z,3.88
2023-04-04T21:11:28.968Z,1.92
2023-04-04T21:16:26.190Z,0.60
2023-04-04T21:19:00.674Z,0.35
2023-04-04T21:21:28.570Z,0.47
2023-04-04T21:23:57.696Z,0.50
2023-04-04T21:26:37.716Z,0.35
2023-04-04T21:29:16.757Z,0.88
2023-04-04T21:31:43.888Z,0.30
2023-04-04T21:34:21.833Z,0.65
2023-04-04T21:36:55.328Z,0.80
2023-04-04T21:39:23.899Z,1.23
2023-04-04T21:41:53.672Z,1.17
2023-04-04T21:44:20.740Z,0.20
2023-04-04T21:46:47.711Z,0.30
2023-04-04T21:49:14.655Z,0.70
2023-04-04T21:51:42.498Z,2.10
2023-04-04T21:54:09.588Z,0.17
2023-04-04T21:56:38.279Z,0.63
2023-04-04T21:59:08.372Z,0.63
2023-04-04T22:01:36.696Z,0.20
2023-04-04T22:04:03.709Z,0.70
2023-04-04T22:06:31.161Z,0.10
2023-04-04T22:09:00.143Z,0.15
2023-04-04T22:11:28.243Z,0.20
2023-04-04T22:14:04.808Z,0.22
2023-04-04T22:16:32.498Z,1.42
2023-04-04T22:19:01.263Z,0.25
2023-04-04T22:21:28.578Z,0.40
2023-04-04T22:24:02.416Z,0.20
2023-04-04T22:26:32.463Z,0.32
2023-04-04T22:29:04.369Z,0.35
2023-04-04T22:31:34.501Z,0.57
2023-04-04T22:34:03.394Z,0.47
2023-04-04T22:36:30.906Z,0.60
2023-04-04T22:38:58.261Z,0.20
2023-04-04T22:41:28.115Z,0.40
2023-04-04T22:43:55.846Z,0.28
2023-04-04T22:46:23.643Z,0.17
2023-04-04T22:48:50.637Z,0.08
2023-04-04T22:51:17.423Z,0.15
2023-04-04T22:53:44.596Z,0.25
2023-04-04T22:56:11.682Z,0.45
2023-04-04T22:58:38.630Z,0.30
2023-04-04T23:01:06.481Z,0.15
2023-04-04T23:03:33.631Z,0.03
2023-04-04T23:06:00.514Z,0.17
2023-04-04T23:08:27.576Z,0.13
2023-04-04T23:10:55.597Z,0.00
2023-04-04T23:13:22.644Z,0.08
2023-04-04T23:15:49.622Z,0.15
2023-04-04T23:18:16.556Z,0.00
2023-04-04T23:20:43.810Z,0.32
2023-04-04T23:23:10.830Z,0.00
2023-04-04T23:25:37.681Z,0.10
2023-04-04T23:28:04.562Z,0.10
2023-04-04T23:30:31.455Z,0.20
2023-04-04T23:32:58.366Z,0.20
2023-04-04T23:35:25.266Z,0.00
2023-04-04T23:37:52.138Z,0.00
2023-04-04T23:40:18.959Z,0.50
2023-04-04T23:42:45.729Z,0.00
2023-04-04T23:45:12.576Z,0.10
2023-04-04T23:47:39.696Z,0.10
2023-04-04T23:50:07.623Z,0.10
2023-04-04T23:52:35.294Z,1.45
2023-04-04T23:55:02.187Z,0.10
2023-04-04T23:57:29.043Z,0.10
2023-04-04T23:59:55.906Z,0.00
